Weather observations for the past three days for
Shelton, Shelton Sanderson Field
Imperial (Metric)
Date Time (pdt) Wind (mph) Vis. (mi.) Weather Sky Cond. Temperature (ºF) Relative Humidity Wind Chill (°F) Heat Index (°F) Pressure Precipitation (in)
Air Dwpt 6 hour altimeter (in) sea level (mb) 1 hr 3 hr 6 hr
Max. Min.
01 13:53 SW 8 10.00 Overcast SCT025 BKN031 OVC038 64.9 54 68% 29.82 1009.6
01 12:53 W 13 10.00 Overcast BKN022 OVC027 64 55 73% 29.82 1009.8
01 11:53 W 7 10.00 Overcast BKN018 OVC025 63 55 76% 29.83 1010.0
01 10:53 SW 12 10.00 Overcast OVC015 63 55 63 57.9 76% 29.82 1009.7
01 09:53 SW 16 G 22 10.00 Overcast OVC014 62.1 55 78% 29.81 1009.5
01 08:53 SW 14 10.00 Overcast OVC013 61 55 81% 29.81 1009.5
01 07:53 SW 12 10.00 Overcast OVC013 60.1 55 84% 29.81 1009.4
01 06:53 SW 9 10.00 Overcast OVC012 59 55 87% 29.81 1009.2
01 05:53 SW 10 10.00 Overcast OVC010 59 55 87% 29.8 1009.0
01 04:53 SW 13 G 22 10.00 Overcast OVC007 57.9 55.9 57.9 53.1 93% 29.8 1008.7
01 03:53 SW 12 9.00 Overcast OVC004 57 55.9 96% 29.8 1008.8
01 02:53 W 13 10.00 Overcast OVC005 57 55 93% 29.79 1008.7
01 01:53 W 9 10.00 Fair CLR 57.9 55 90% 29.79 1008.6
01 00:53 W 5 10.00 Fair CLR 55 53.1 93% 29.78 1008.3
31 23:53 SW 5 10.00 Fair CLR 54 51.1 90% 29.77 1008.0
31 22:53 Calm 10.00 Fair CLR 57.9 52 82 55.9 81% 29.77 1008.2
31 21:53 Calm 10.00 Fair CLR 60.1 51.1 72% 29.77 1008.2
31 20:53 NE 3 10.00 Fair CLR 66.9 53.1 61% 29.76 1007.9
31 19:53 NE 3 10.00 Fair CLR 72 52 50% 29.74 1007.1
31 18:53 E 7 10.00 Fair CLR 77 51.1 40% 78 29.74 1007.1
31 17:53 N 5 10.00 Fair CLR 81 48 32% 80 29.74 1007.0
31 16:53 N 8 10.00 Fair CLR 82 50 82 69.1 33% 81 29.75 1007.4
31 15:53 N 10 10.00 Fair CLR 81 52 37% 80 29.76 1007.7
31 14:53 NW 8 10.00 Fair CLR 79 51.1 38% 79 29.78 1008.5
31 13:53 Vrbl 5 10.00 Fair CLR 77 51.1 40% 78 29.81 1009.2
31 12:53 Vrbl 5 10.00 Fair CLR 75 50 42% 78 29.83 1010.2
31 11:53 E 8 10.00 Fair CLR 72 51.1 48% 29.86 1011.1
31 10:53 NE 6 10.00 Fair CLR 69.1 51.1 69.1 45 53% 29.88 1011.9
31 09:53 E 6 10.00 Fair CLR 64 52 65% 29.9 1012.4
31 08:53 Vrbl 3 10.00 Fair CLR 59 53.1 81% 29.91 1012.9
31 07:53 Calm 10.00 Fair CLR 52 48.9 89% 29.93 1013.4
31 06:53 Calm 10.00 Fair CLR 45 44.1 97% 29.92 1013.4
31 05:53 Calm 10.00 Fair CLR 45 44.1 97% 29.93 1013.5
31 04:53 Calm 10.00 Fair CLR 46 45 54 46 96% 29.94 1013.9
31 03:53 Calm 10.00 Fair CLR 48 46 93% 29.95 1014.3
31 02:53 Calm 10.00 Fair CLR 48.9 46.9 93% 29.96 1014.5
31 01:53 Calm 10.00 Fair CLR 53.1 48.9 86% 29.98 1015.0
31 00:53 Calm 10.00 Fair CLR 52 50 93% 29.99 1015.5
30 23:53 Calm 10.00 Fair CLR 53.1 50 89% 30 1016.0
30 22:53 Calm 10.00 Fair CLR 54 48.9 73 54 83% 30.01 1016.4
30 21:53 Calm 10.00 Fair CLR 62.1 50 65% 30.03 1016.8
30 20:53 Vrbl 3 10.00 Mostly Cloudy BKN050 66 50 56% 30.03 1016.7
30 19:53 SE 5 10.00 Overcast OVC048 69.1 48 47% 30.02 1016.4
30 18:53 E 6 10.00 Overcast OVC050 70 48 46% 30.03 1016.7
30 17:53 W 7 10.00 Mostly Cloudy BKN055 72 51.1 48% 30.03 1016.8
30 16:53 Calm 10.00 Mostly Cloudy BKN055 71.1 50 73 62.1 47% 30.04 1017.3
30 15:53 SW 6 10.00 Mostly Cloudy BKN055 73 46.9 40% 30.05 1017.6
30 14:53 Vrbl 5 10.00 Fair CLR 72 46.9 41% 30.07 1018.2
30 13:53 S 5 10.00 A Few Clouds FEW044 69.1 46.9 45% 30.09 1018.7
30 12:53 Calm 10.00 Partly Cloudy SCT041 66 48 52% 30.1 1019.1
30 11:53 SE 6 10.00 Fair CLR 66 48.9 54% 30.11 1019.6
30 10:53 SE 5 10.00 Fair CLR 63 50 63 52 63% 30.11 1019.7
30 09:53 Calm 10.00 Fair CLR 60.1 51.1 72% 30.11 1019.7
30 08:53 Calm 10.00 Fair CLR 55.9 51.1 84% 30.12 1020.0
30 07:53 Calm 10.00 Overcast OVC017 54 51.1 90% 30.12 1019.9
30 06:53 Calm 10.00 Overcast OVC016 52 50 93% 30.1 1019.5
30 05:53 W 3 10.00 Overcast OVC015 52 50 93% 30.1 1019.1
30 04:53 Calm 10.00 Overcast BKN015 OVC024 53.1 50 55 52 89% 30.1 1019.2
30 03:53 Calm 10.00 Overcast OVC049 53.1 50 89% 30.09 1018.9
30 02:53 W 5 10.00 Overcast OVC047 53.1 51.1 93% 30.09 1018.9
30 01:53 W 5 10.00 Overcast OVC036 53.1 51.1 93% 30.09 1018.8
30 00:53 W 6 10.00 Fair CLR 53.1 50 89% 30.09 1018.8
29 23:53 W 7 10.00 A Few Clouds FEW041 54 51.1 90% 30.08 1018.6
29 22:53 W 8 10.00 Fair CLR 55 51.1 69.1 55 87% 30.08 1018.7
29 21:53 W 9 10.00 Fair CLR 55.9 51.1 84% 30.08 1018.6
29 20:53 SW 10 10.00 Fair CLR 57.9 50 75% 30.06 1018.1
29 19:53 SW 16 10.00 Fair CLR 61 48 63% 30.05 1017.5
29 18:53 W 14 G 22 10.00 Fair CLR 64.9 46.9 52% 30.04 1017.2
29 17:53 W 14 G 24 10.00 Fair CLR 68 46.9 47% 30.04 1017.1
29 16:53 W 23 G 31 10.00 A Few Clouds and Breezy FEW080 69.1 46.9 71.1 62.1 45% 30.02 1016.7
29 15:53 W 21 G 29 10.00 Fair and Breezy CLR 70 46.9 44% 30.03 1016.9
29 14:53 SW 21 G 29 10.00 Fair and Breezy CLR 70 48.9 47% 30.02 1016.7
Date Time (pdt) Wind (mph) Vis. (mi.) Weather Sky Cond. Air Dwpt Max. Min. Relative Humidity Wind Chill (°F) Heat Index (°F) altimeter (in) sea level (mb) 1 hr 3 hr 6 hr
6 hour
Temperature (ºF) Pressure Precipitation (in)